createdAt,value
2018-11-27T00:01:42.979Z,21.77
2018-11-27T00:03:45.894Z,21.65
2018-11-27T00:05:50.436Z,24.42
2018-11-27T00:07:54.687Z,24.70
2018-11-27T00:09:57.819Z,20.07
2018-11-27T00:12:00.921Z,21.87
2018-11-27T00:14:04.597Z,23.35
2018-11-27T00:16:09.074Z,17.45
2018-11-27T00:18:12.003Z,20.00
2018-11-27T00:20:14.938Z,25.27
2018-11-27T00:22:17.887Z,18.33
2018-11-27T00:24:21.564Z,20.83
2018-11-27T00:26:25.388Z,22.65
2018-11-27T00:28:29.090Z,18.95
2018-11-27T00:30:32.891Z,28.42
2018-11-27T00:32:36.694Z,21.03
2018-11-27T00:34:40.391Z,14.05
2018-11-27T00:36:43.347Z,17.62
2018-11-27T00:38:46.275Z,20.33
2018-11-27T00:40:49.191Z,21.37
2018-11-27T00:42:52.134Z,19.27
2018-11-27T00:44:55.046Z,20.90
2018-11-27T00:46:57.979Z,15.50
2018-11-27T00:49:01.657Z,21.33
2018-11-27T00:51:04.566Z,19.10
2018-11-27T00:53:08.365Z,22.07
2018-11-27T00:55:11.344Z,27.30
2018-11-27T00:57:15.073Z,19.70
2018-11-27T00:59:17.999Z,21.12
2018-11-27T01:01:20.919Z,19.87
2018-11-27T01:03:23.861Z,20.10
2018-11-27T01:05:26.877Z,22.50
2018-11-27T01:07:30.681Z,18.98
2018-11-27T01:09:34.383Z,24.42
2018-11-27T01:11:38.057Z,17.10
2018-11-27T01:13:41.009Z,19.35
2018-11-27T01:15:43.917Z,24.00
2018-11-27T01:17:46.866Z,21.87
2018-11-27T01:19:49.912Z,19.17
2018-11-27T01:21:53.595Z,15.93
2018-11-27T01:23:57.412Z,22.67
2018-11-27T01:26:01.215Z,22.80
2018-11-27T01:28:04.211Z,18.45
2018-11-27T01:30:07.121Z,17.45
2018-11-27T01:32:10.184Z,18.83
2018-11-27T01:34:13.146Z,16.33
2018-11-27T01:36:16.823Z,11.77
2018-11-27T01:38:19.759Z,19.33
2018-11-27T01:40:23.506Z,24.52
2018-11-27T01:42:27.202Z,17.00
2018-11-27T01:44:30.148Z,21.90
2018-11-27T01:46:33.059Z,21.08
2018-11-27T01:48:36.017Z,25.00
2018-11-27T01:50:38.925Z,16.00
2018-11-27T01:52:41.843Z,16.62
2018-11-27T01:54:44.790Z,18.40
2018-11-27T01:56:47.717Z,19.67
2018-11-27T01:58:50.654Z,16.17
2018-11-27T02:00:53.666Z,16.25
2018-11-27T02:02:57.363Z,14.02
2018-11-27T02:05:01.170Z,18.85
2018-11-27T02:07:04.889Z,17.35
2018-11-27T02:09:08.912Z,16.60
2018-11-27T02:11:11.811Z,20.60
2018-11-27T02:13:14.747Z,22.85
2018-11-27T02:15:17.698Z,20.45
2018-11-27T02:17:20.618Z,20.08
2018-11-27T02:19:24.397Z,15.35
2018-11-27T02:21:28.080Z,22.52
2018-11-27T02:23:31.785Z,15.93
2018-11-27T02:25:35.506Z,18.00
2018-11-27T02:27:39.170Z,16.05
2018-11-27T02:29:42.143Z,20.77
2018-11-27T02:31:45.034Z,16.42
2018-11-27T02:33:47.955Z,19.37
2018-11-27T02:35:50.901Z,18.65
2018-11-27T02:37:53.816Z,16.37
2018-11-27T02:39:57.618Z,16.12
2018-11-27T02:42:01.297Z,15.95
2018-11-27T02:44:05.718Z,19.70
2018-11-27T02:46:09.535Z,17.90
2018-11-27T02:48:13.218Z,16.52
2018-11-27T02:50:16.898Z,24.95
2018-11-27T02:52:19.846Z,18.23
2018-11-27T02:54:22.771Z,18.48
2018-11-27T02:56:25.679Z,20.90
2018-11-27T02:58:28.676Z,19.58
2018-11-27T03:00:32.367Z,16.48
2018-11-27T03:02:36.165Z,17.95
2018-11-27T03:04:39.893Z,20.62
2018-11-27T03:06:42.819Z,22.98
2018-11-27T03:08:45.743Z,17.20
2018-11-27T03:10:48.845Z,15.60
2018-11-27T03:12:51.770Z,20.88
2018-11-27T03:14:54.751Z,20.70
2018-11-27T03:16:57.679Z,18.07
2018-11-27T03:19:00.596Z,22.67
2018-11-27T03:21:03.560Z,20.60
2018-11-27T03:23:06.506Z,21.58
2018-11-27T03:25:10.186Z,19.25
2018-11-27T03:27:13.907Z,13.63
2018-11-27T03:29:17.585Z,14.98
2018-11-27T03:31:20.496Z,25.37
2018-11-27T03:33:23.505Z,17.83
2018-11-27T03:35:26.428Z,20.20
2018-11-27T03:37:29.437Z,16.20
2018-11-27T03:39:33.269Z,19.30
2018-11-27T03:41:36.277Z,22.65
2018-11-27T03:43:39.310Z,16.92
2018-11-27T03:45:42.276Z,18.07
2018-11-27T03:47:45.206Z,18.20
2018-11-27T03:49:48.840Z,21.77
2018-11-27T03:51:51.859Z,21.02
2018-11-27T03:53:55.556Z,17.02
2018-11-27T03:55:59.272Z,20.35
2018-11-27T03:58:02.196Z,26.23
2018-11-27T04:00:05.222Z,23.45
2018-11-27T04:02:08.939Z,23.15
2018-11-27T04:04:11.860Z,19.17
2018-11-27T04:06:14.890Z,16.87
2018-11-27T04:08:18.623Z,16.73
2018-11-27T04:10:21.556Z,17.95
2018-11-27T04:12:25.255Z,16.60
2018-11-27T04:14:28.228Z,15.98
2018-11-27T04:16:31.160Z,16.83
2018-11-27T04:18:34.086Z,25.85
2018-11-27T04:20:37.095Z,17.43
2018-11-27T04:22:40.780Z,17.87
2018-11-27T04:24:43.707Z,14.27
2018-11-27T04:26:47.691Z,14.70
2018-11-27T04:28:51.378Z,24.93
2018-11-27T04:30:55.533Z,18.85
2018-11-27T04:32:58.455Z,21.75
2018-11-27T04:35:01.532Z,20.88
2018-11-27T04:37:04.477Z,17.12
2018-11-27T04:39:07.398Z,22.05
2018-11-27T04:41:11.446Z,22.40
2018-11-27T04:43:15.167Z,17.17
2018-11-27T04:45:18.097Z,32.95
2018-11-27T04:47:22.643Z,17.85
2018-11-27T04:49:26.365Z,19.30
2018-11-27T04:51:29.284Z,19.65
2018-11-27T04:53:32.187Z,18.62
2018-11-27T04:55:35.144Z,19.30
2018-11-27T04:57:38.084Z,14.70
2018-11-27T04:59:41.007Z,14.20
2018-11-27T05:01:44.135Z,18.95
2018-11-27T05:03:47.068Z,15.40
2018-11-27T05:05:49.983Z,19.97
2018-11-27T05:07:52.947Z,26.77
2018-11-27T05:09:55.967Z,20.27
2018-11-27T05:11:59.771Z,23.43
2018-11-27T05:14:03.492Z,22.65
2018-11-27T05:16:06.419Z,15.98
2018-11-27T05:18:09.364Z,19.52
2018-11-27T05:20:12.298Z,26.35
2018-11-27T05:22:15.984Z,19.87
2018-11-27T05:24:20.460Z,24.50
2018-11-27T05:26:23.518Z,23.60
2018-11-27T05:28:27.214Z,24.90
2018-11-27T05:30:30.947Z,25.10
2018-11-27T05:32:33.863Z,19.27
2018-11-27T05:34:36.883Z,29.80
2018-11-27T05:36:39.985Z,24.80
2018-11-27T05:38:42.950Z,21.73
2018-11-27T05:40:45.875Z,22.80
2018-11-27T05:42:48.836Z,28.62
2018-11-27T05:44:51.901Z,27.33
2018-11-27T05:46:55.703Z,25.37
2018-11-27T05:48:59.503Z,20.97
2018-11-27T05:51:03.283Z,23.48
2018-11-27T05:53:07.960Z,21.85
2018-11-27T05:55:10.882Z,26.40
2018-11-27T05:57:13.807Z,22.40
2018-11-27T05:59:16.876Z,20.20
2018-11-27T06:01:20.678Z,20.30
2018-11-27T06:03:23.612Z,20.70
2018-11-27T06:05:26.576Z,23.20
2018-11-27T06:07:35.141Z,20.20
2018-11-27T06:09:38.071Z,23.73
2018-11-27T06:11:41.125Z,21.87
2018-11-27T06:13:45.549Z,23.77
2018-11-27T06:15:49.632Z,23.67
2018-11-27T06:17:52.567Z,19.90
2018-11-27T06:19:55.988Z,23.62
2018-11-27T06:21:58.944Z,20.12
2018-11-27T06:24:01.993Z,21.10
2018-11-27T06:26:04.978Z,22.07
2018-11-27T06:28:08.696Z,21.00
2018-11-27T06:30:11.658Z,20.65
2018-11-27T06:32:15.364Z,18.58
2018-11-27T06:34:19.081Z,21.60
2018-11-27T06:36:22.000Z,18.30
2018-11-27T06:38:25.022Z,20.13
2018-11-27T06:40:28.110Z,21.30
2018-11-27T06:42:31.819Z,19.45
2018-11-27T06:44:34.750Z,22.62
2018-11-27T06:46:37.773Z,22.45
2018-11-27T06:48:41.462Z,19.80
2018-11-27T06:50:45.326Z,18.48
2018-11-27T06:52:48.378Z,23.70
2018-11-27T06:54:51.318Z,19.10
2018-11-27T06:56:54.428Z,22.02
2018-11-27T06:58:58.144Z,19.70
2018-11-27T07:01:01.074Z,17.08
2018-11-27T07:03:04.055Z,22.15
2018-11-27T07:05:07.056Z,20.12
2018-11-27T07:07:09.989Z,27.50
2018-11-27T07:09:12.953Z,22.30
2018-11-27T07:11:16.027Z,20.37
2018-11-27T07:13:19.033Z,24.63
2018-11-27T07:15:22.096Z,22.42
2018-11-27T07:17:25.795Z,17.80
2018-11-27T07:19:29.512Z,18.37
2018-11-27T07:21:32.440Z,22.13
2018-11-27T07:23:35.404Z,28.45
2018-11-27T07:25:38.445Z,24.50
2018-11-27T07:27:42.141Z,20.30
2018-11-27T07:29:46.044Z,23.08
2018-11-27T07:31:49.852Z,23.03
2018-11-27T07:33:53.654Z,20.10
2018-11-27T07:35:57.351Z,22.92
2018-11-27T07:38:01.029Z,23.63
2018-11-27T07:40:03.951Z,22.95
2018-11-27T07:42:07.021Z,24.08
2018-11-27T07:44:10.807Z,20.45
2018-11-27T07:46:14.514Z,17.80
2018-11-27T07:48:18.426Z,28.05
2018-11-27T07:50:22.231Z,27.37
2018-11-27T07:52:25.930Z,22.40
2018-11-27T07:54:29.644Z,29.42
2018-11-27T07:56:32.580Z,25.10
2018-11-27T07:58:36.311Z,22.00
2018-11-27T08:00:40.029Z,23.42
2018-11-27T08:02:42.962Z,28.75
2018-11-27T08:04:45.888Z,26.35
2018-11-27T08:06:48.845Z,24.90
2018-11-27T08:08:51.771Z,27.00
2018-11-27T08:10:54.722Z,23.30
2018-11-27T08:12:58.629Z,22.50
2018-11-27T08:15:02.429Z,22.10
2018-11-27T08:17:06.456Z,27.50
2018-11-27T08:19:09.418Z,31.07
2018-11-27T08:21:12.503Z,28.35
2018-11-27T08:23:16.224Z,22.90
2018-11-27T08:25:19.143Z,28.48
2018-11-27T08:27:22.107Z,22.30
2018-11-27T08:29:25.165Z,22.35
2018-11-27T08:31:28.955Z,26.65
2018-11-27T08:33:32.643Z,20.15
2018-11-27T08:35:37.192Z,23.23
2018-11-27T08:37:40.816Z,29.63
2018-11-27T08:39:43.763Z,26.67
2018-11-27T08:41:46.739Z,33.63
2018-11-27T08:43:50.542Z,24.80
2018-11-27T08:45:54.306Z,21.30
2018-11-27T08:47:57.256Z,23.75
2018-11-27T08:50:00.171Z,25.95
2018-11-27T08:52:04.744Z,24.65
2018-11-27T08:54:07.677Z,28.92
2018-11-27T08:56:10.609Z,27.73
2018-11-27T08:58:13.779Z,29.58
2018-11-27T09:00:17.578Z,25.42
2018-11-27T09:02:21.290Z,30.62
2018-11-27T09:04:24.380Z,22.73
2018-11-27T09:06:27.347Z,22.20
2018-11-27T09:08:30.330Z,20.10
2018-11-27T09:10:34.060Z,28.20
2018-11-27T09:12:37.008Z,21.37
2018-11-27T09:14:40.815Z,25.62
2018-11-27T09:16:44.554Z,19.20
2018-11-27T09:18:47.520Z,19.73
2018-11-27T09:20:50.583Z,27.62
2018-11-27T09:22:54.386Z,27.50
2018-11-27T09:24:58.104Z,23.73
2018-11-27T09:27:01.069Z,24.50
2018-11-27T09:29:04.015Z,25.40
2018-11-27T09:31:06.984Z,25.42
2018-11-27T09:33:09.912Z,23.25
2018-11-27T09:35:13.596Z,19.87
2018-11-27T09:37:18.047Z,23.38
2018-11-27T09:39:20.988Z,24.60
2018-11-27T09:41:24.005Z,21.80
2018-11-27T09:43:27.716Z,23.05
2018-11-27T09:45:30.654Z,21.80
2018-11-27T09:47:33.767Z,22.15
2018-11-27T09:49:37.605Z,25.17
2018-11-27T09:51:40.537Z,25.48
2018-11-27T09:53:44.271Z,23.70
2018-11-27T09:55:48.715Z,25.80
2018-11-27T09:57:51.649Z,28.57
2018-11-27T09:59:55.455Z,25.07
2018-11-27T10:01:59.175Z,27.10
2018-11-27T10:04:02.121Z,28.55
2018-11-27T10:06:05.817Z,24.83
2018-11-27T10:08:08.772Z,27.33
2018-11-27T10:10:11.721Z,25.17
2018-11-27T10:12:14.669Z,25.70
2018-11-27T10:14:18.488Z,27.83
2018-11-27T10:16:22.289Z,28.05
2018-11-27T10:18:26.212Z,22.35
2018-11-27T10:20:29.163Z,24.50
2018-11-27T10:22:32.877Z,24.98
2018-11-27T10:24:36.616Z,27.90
2018-11-27T10:26:39.537Z,28.77
2018-11-27T10:28:42.463Z,21.27
2018-11-27T10:30:45.404Z,29.47
2018-11-27T10:32:49.131Z,28.13
2018-11-27T10:34:52.822Z,20.73
2018-11-27T10:36:55.848Z,22.10
2018-11-27T10:39:00.978Z,22.20
2018-11-27T10:41:01.764Z,24.97
2018-11-27T10:43:05.489Z,26.80
2018-11-27T10:45:08.440Z,33.92
2018-11-27T10:47:12.926Z,26.20
2018-11-27T10:49:15.958Z,33.40
2018-11-27T10:51:19.649Z,27.17
2018-11-27T10:53:23.462Z,24.98
2018-11-27T10:55:27.197Z,26.80
2018-11-27T10:57:30.145Z,22.98
2018-11-27T10:59:34.702Z,30.83
2018-11-27T11:01:37.752Z,24.73
2018-11-27T11:03:41.457Z,24.23
2018-11-27T11:05:44.574Z,28.35
2018-11-27T11:07:47.515Z,25.45
2018-11-27T11:09:51.218Z,31.15
2018-11-27T11:11:59.217Z,29.87
2018-11-27T11:13:57.897Z,22.80
2018-11-27T11:16:01.700Z,25.53
2018-11-27T11:18:05.502Z,27.40
2018-11-27T11:20:09.197Z,25.33
2018-11-27T11:22:12.936Z,24.10
2018-11-27T11:24:15.869Z,23.67
2018-11-27T11:26:18.791Z,29.17
2018-11-27T11:28:21.749Z,27.17
2018-11-27T11:30:24.664Z,35.13
2018-11-27T11:32:27.592Z,24.50
2018-11-27T11:34:31.671Z,32.72
2018-11-27T11:36:34.616Z,26.70
2018-11-27T11:38:37.816Z,25.05
2018-11-27T11:40:40.760Z,38.15
2018-11-27T11:42:43.692Z,27.95
2018-11-27T11:44:46.746Z,28.17
2018-11-27T11:46:50.465Z,28.73
2018-11-27T11:48:53.450Z,33.15
2018-11-27T11:50:56.410Z,32.67
2018-11-27T11:53:00.215Z,33.00
2018-11-27T11:55:04.018Z,42.55
2018-11-27T11:57:08.122Z,30.00
2018-11-27T11:59:11.820Z,35.33
2018-11-27T12:01:15.548Z,27.55
2018-11-27T12:03:18.472Z,35.13
2018-11-27T12:05:25.104Z,30.52
2018-11-27T12:07:24.485Z,33.75
2018-11-27T12:09:27.429Z,36.08
2018-11-27T12:11:31.132Z,34.92
2018-11-27T12:13:34.956Z,35.03
2018-11-27T12:15:37.965Z,33.95
2018-11-27T12:17:40.893Z,28.23
2018-11-27T12:19:43.888Z,36.97
2018-11-27T12:21:47.584Z,32.42
2018-11-27T12:23:51.408Z,31.62
2018-11-27T12:25:54.410Z,28.90
2018-11-27T12:27:57.327Z,36.60
2018-11-27T12:30:00.251Z,33.08
2018-11-27T12:32:03.400Z,32.50
2018-11-27T12:34:06.424Z,30.48
2018-11-27T12:36:10.144Z,33.17
2018-11-27T12:38:13.207Z,39.78
2018-11-27T12:40:16.959Z,36.13
2018-11-27T12:42:19.998Z,37.78
2018-11-27T12:44:24.364Z,36.00
2018-11-27T12:46:27.394Z,35.13
2018-11-27T12:48:31.092Z,34.92
2018-11-27T12:50:34.826Z,51.92
2018-11-27T12:52:37.755Z,36.58
2018-11-27T12:54:40.748Z,37.92
2018-11-27T12:56:44.480Z,37.22
2018-11-27T12:58:47.432Z,38.97
2018-11-27T13:00:51.267Z,31.52
2018-11-27T13:02:54.196Z,35.75
2018-11-27T13:04:57.132Z,36.00
2018-11-27T13:07:00.216Z,40.72
2018-11-27T13:09:03.187Z,40.95
2018-11-27T13:11:11.369Z,45.60
2018-11-27T13:13:09.273Z,36.08
2018-11-27T13:15:12.208Z,32.38
2018-11-27T13:17:16.656Z,39.70
2018-11-27T13:19:19.636Z,31.45
2018-11-27T13:21:22.569Z,37.38
2018-11-27T13:23:25.535Z,44.80
2018-11-27T13:25:28.468Z,39.03
2018-11-27T13:27:32.173Z,42.10
2018-11-27T13:29:35.159Z,39.75
2018-11-27T13:31:38.854Z,36.03
2018-11-27T13:33:42.557Z,39.17
2018-11-27T13:35:46.290Z,31.37
2018-11-27T13:37:50.074Z,41.25
2018-11-27T13:39:52.995Z,42.62
2018-11-27T13:41:55.984Z,39.15
2018-11-27T13:43:59.970Z,37.78
2018-11-27T13:46:01.997Z,41.83
2018-11-27T13:48:05.076Z,42.17
2018-11-27T13:50:08.043Z,37.45
2018-11-27T13:52:11.861Z,40.35
2018-11-27T13:54:15.663Z,44.15
2018-11-27T13:56:18.607Z,35.38
2018-11-27T13:58:21.756Z,59.53
2018-11-27T14:00:24.695Z,45.88
2018-11-27T14:02:28.299Z,51.47
2018-11-27T14:04:32.230Z,34.80
2018-11-27T14:06:35.162Z,28.05
2018-11-27T14:08:38.103Z,36.90
2018-11-27T14:10:41.183Z,40.05
2018-11-27T14:12:44.116Z,34.35
2018-11-27T14:14:47.100Z,36.90
2018-11-27T14:16:50.527Z,42.77
2018-11-27T14:18:53.469Z,43.77
2018-11-27T14:20:56.432Z,44.27
2018-11-27T14:22:59.371Z,40.17
2018-11-27T14:25:02.394Z,38.83
2018-11-27T14:27:05.362Z,39.97
2018-11-27T14:29:08.288Z,39.00
2018-11-27T14:31:11.241Z,43.92
2018-11-27T14:33:14.236Z,43.28
2018-11-27T14:35:17.173Z,51.40
2018-11-27T14:37:20.104Z,38.67
2018-11-27T14:39:23.218Z,40.03
2018-11-27T14:41:26.908Z,37.92
2018-11-27T14:43:29.855Z,44.47
2018-11-27T14:45:32.832Z,38.38
2018-11-27T14:47:35.761Z,40.17
2018-11-27T14:49:38.893Z,46.00
2018-11-27T14:51:41.857Z,41.33
2018-11-27T14:53:44.789Z,38.30
2018-11-27T14:55:47.749Z,37.38
2018-11-27T14:57:50.800Z,44.92
2018-11-27T14:59:53.760Z,45.28
2018-11-27T15:01:56.727Z,41.58
2018-11-27T15:03:59.748Z,48.67
2018-11-27T15:06:03.555Z,41.10
2018-11-27T15:08:06.516Z,42.97
2018-11-27T15:10:09.439Z,40.53
2018-11-27T15:12:12.425Z,35.78
2018-11-27T15:14:15.384Z,49.30
2018-11-27T15:16:18.878Z,37.10
2018-11-27T15:18:22.718Z,38.47
2018-11-27T15:20:24.947Z,58.55
2018-11-27T15:22:28.749Z,39.45
2018-11-27T15:24:32.464Z,36.83
2018-11-27T15:26:35.433Z,42.92
2018-11-27T15:28:38.373Z,36.05
2018-11-27T15:30:41.340Z,39.88
2018-11-27T15:32:44.272Z,38.20
2018-11-27T15:34:48.079Z,40.25
2018-11-27T15:36:51.804Z,41.73
2018-11-27T15:38:54.762Z,43.97
2018-11-27T15:40:58.564Z,39.67
2018-11-27T15:43:02.365Z,53.53
2018-11-27T15:45:05.314Z,44.23
2018-11-27T15:47:08.263Z,45.57
2018-11-27T15:49:11.215Z,40.42
2018-11-27T15:51:14.919Z,31.62
2018-11-27T15:53:17.881Z,40.27
2018-11-27T15:55:21.670Z,45.33
2018-11-27T15:57:24.683Z,41.08
2018-11-27T15:59:28.488Z,41.05
2018-11-27T16:01:32.286Z,39.80
2018-11-27T16:03:35.232Z,36.83
2018-11-27T16:05:38.171Z,64.22
2018-11-27T16:07:41.135Z,43.22
2018-11-27T16:09:44.838Z,42.05
2018-11-27T16:11:48.573Z,36.45
2018-11-27T16:13:55.399Z,48.15
2018-11-27T16:15:55.319Z,37.60
2018-11-27T16:17:59.039Z,50.67
2018-11-27T16:20:01.976Z,45.42
2018-11-27T16:22:04.983Z,42.15
2018-11-27T16:24:08.719Z,52.10
2018-11-27T16:26:11.651Z,44.35
2018-11-27T16:28:15.345Z,38.47
2018-11-27T16:30:19.193Z,41.00
2018-11-27T16:32:22.107Z,44.03
2018-11-27T16:34:25.045Z,49.13
2018-11-27T16:36:28.120Z,41.03
2018-11-27T16:38:31.807Z,46.30
2018-11-27T16:40:35.514Z,46.67
2018-11-27T16:42:38.549Z,43.13
2018-11-27T16:44:41.505Z,39.65
2018-11-27T16:46:44.569Z,52.07
2018-11-27T16:48:48.280Z,36.07
2018-11-27T16:50:51.978Z,42.55
2018-11-27T16:52:55.569Z,49.13
2018-11-27T16:54:59.370Z,37.47
2018-11-27T16:57:03.071Z,41.03
2018-11-27T16:59:06.800Z,44.45
2018-11-27T17:01:09.727Z,44.93
2018-11-27T17:03:14.485Z,48.38
2018-11-27T17:05:18.300Z,43.30
2018-11-27T17:07:21.219Z,44.92
2018-11-27T17:09:24.163Z,39.03
2018-11-27T17:11:27.370Z,48.58
2018-11-27T17:13:30.419Z,57.13
2018-11-27T17:15:34.222Z,42.85
2018-11-27T17:17:38.169Z,38.47
2018-11-27T17:19:41.211Z,41.70
2018-11-27T17:21:44.947Z,49.80
2018-11-27T17:23:48.806Z,42.15
2018-11-27T17:25:52.496Z,43.87
2018-11-27T17:27:56.417Z,40.08
2018-11-27T17:30:00.220Z,40.38
2018-11-27T17:32:03.920Z,39.05
2018-11-27T17:34:07.744Z,43.87
2018-11-27T17:36:10.706Z,49.47
2018-11-27T17:38:14.507Z,43.87
2018-11-27T17:40:18.229Z,52.55
2018-11-27T17:42:21.162Z,45.78
2018-11-27T17:44:24.121Z,49.65
2018-11-27T17:46:27.145Z,40.90
2018-11-27T17:48:30.082Z,42.23
2018-11-27T17:50:33.064Z,50.10
2018-11-27T17:52:36.002Z,44.55
2018-11-27T17:54:38.922Z,51.90
2018-11-27T17:56:41.893Z,57.88
2018-11-27T17:58:44.837Z,49.15
2018-11-27T18:00:48.552Z,45.47
2018-11-27T18:02:53.116Z,42.62
2018-11-27T18:04:56.053Z,52.25
2018-11-27T18:06:59.857Z,45.15
2018-11-27T18:09:02.843Z,49.33
2018-11-27T18:11:06.640Z,44.13
2018-11-27T18:13:10.340Z,44.97
2018-11-27T18:15:14.061Z,41.95
2018-11-27T18:17:16.995Z,47.25
2018-11-27T18:19:19.973Z,54.22
2018-11-27T18:21:22.905Z,45.60
2018-11-27T18:23:25.835Z,42.75
2018-11-27T18:25:28.971Z,41.08
2018-11-27T18:27:31.924Z,37.63
2018-11-27T18:29:35.616Z,57.80
2018-11-27T18:31:39.439Z,36.30
2018-11-27T18:33:43.242Z,40.67
2018-11-27T18:35:47.043Z,35.28
2018-11-27T18:37:50.780Z,45.50
2018-11-27T18:39:54.560Z,50.80
2018-11-27T18:41:57.488Z,33.65
2018-11-27T18:44:00.636Z,45.53
2018-11-27T18:46:03.559Z,46.37
2018-11-27T18:48:06.581Z,39.25
2018-11-27T18:50:10.329Z,39.42
2018-11-27T18:52:13.365Z,46.00
2018-11-27T18:54:17.193Z,40.75
2018-11-27T18:56:20.136Z,39.33
2018-11-27T18:58:23.856Z,34.88
2018-11-27T19:00:27.604Z,48.00
2018-11-27T19:02:31.812Z,52.00
2018-11-27T19:04:33.499Z,42.70
2018-11-27T19:06:37.228Z,49.08
2018-11-27T19:08:40.159Z,38.53
2018-11-27T19:10:43.372Z,41.50
2018-11-27T19:12:46.121Z,41.33
2018-11-27T19:14:49.149Z,43.30
2018-11-27T19:16:52.950Z,41.47
2018-11-27T19:18:56.676Z,47.07
2018-11-27T19:20:59.595Z,34.90
2018-11-27T19:23:03.151Z,43.30
2018-11-27T19:25:06.958Z,43.70
2018-11-27T19:27:09.887Z,36.88
2018-11-27T19:29:12.825Z,47.33
2018-11-27T19:31:15.803Z,37.38
2018-11-27T19:33:18.727Z,40.65
2018-11-27T19:35:25.156Z,42.83
2018-11-27T19:37:24.655Z,39.42
2018-11-27T19:39:27.606Z,45.35
2018-11-27T19:41:31.323Z,45.10
2018-11-27T19:43:34.349Z,48.17
2018-11-27T19:45:37.251Z,38.73
2018-11-27T19:47:41.853Z,44.78
2018-11-27T19:49:44.792Z,46.17
2018-11-27T19:51:47.722Z,40.33
2018-11-27T19:53:50.676Z,51.97
2018-11-27T19:55:53.633Z,38.00
2018-11-27T19:57:56.568Z,43.25
2018-11-27T19:59:59.758Z,47.75
2018-11-27T20:02:02.714Z,47.33
2018-11-27T20:04:05.635Z,44.30
2018-11-27T20:06:08.586Z,42.67
2018-11-27T20:08:11.520Z,49.90
2018-11-27T20:10:14.609Z,46.40
2018-11-27T20:12:18.321Z,41.88
2018-11-27T20:14:21.255Z,53.55
2018-11-27T20:16:24.421Z,45.05
2018-11-27T20:18:27.357Z,45.63
2018-11-27T20:20:31.035Z,41.95
2018-11-27T20:22:34.004Z,35.08
2018-11-27T20:24:37.027Z,46.42
2018-11-27T20:26:40.826Z,40.05
2018-11-27T20:28:44.572Z,39.22
2018-11-27T20:30:47.500Z,40.33
2018-11-27T20:32:51.183Z,38.55
2018-11-27T20:34:54.166Z,48.72
2018-11-27T20:36:57.117Z,39.67
2018-11-27T20:39:00.740Z,46.95
2018-11-27T20:41:03.141Z,46.45
2018-11-27T20:43:06.943Z,38.83
2018-11-27T20:45:10.628Z,37.17
2018-11-27T20:47:14.371Z,48.78
2018-11-27T20:49:17.345Z,46.53
2018-11-27T20:51:20.464Z,44.97
2018-11-27T20:53:23.513Z,36.10
2018-11-27T20:55:26.582Z,45.70
2018-11-27T20:57:29.565Z,42.83
2018-11-27T20:59:33.276Z,46.63
2018-11-27T21:01:36.218Z,35.50
2018-11-27T21:03:39.155Z,33.22
2018-11-27T21:05:42.088Z,39.67
2018-11-27T21:07:45.030Z,36.40
2018-11-27T21:09:48.016Z,41.05
2018-11-27T21:11:50.954Z,35.58
2018-11-27T21:13:54.761Z,33.05
2018-11-27T21:15:58.492Z,32.35
2018-11-27T21:18:01.444Z,28.20
2018-11-27T21:20:05.258Z,22.37
2018-11-27T21:22:08.331Z,25.80
2018-11-27T21:24:12.029Z,30.00
2018-11-27T21:26:15.749Z,27.33
2018-11-27T21:28:18.679Z,24.87
2018-11-27T21:30:21.612Z,20.70
2018-11-27T21:32:25.432Z,24.90
2018-11-27T21:34:28.388Z,33.03
2018-11-27T21:36:32.115Z,28.35
2018-11-27T21:38:35.052Z,26.15
2018-11-27T21:40:38.731Z,33.78
2018-11-27T21:42:42.696Z,34.30
2018-11-27T21:44:45.637Z,24.60
2018-11-27T21:46:49.326Z,26.87
2018-11-27T21:48:52.276Z,23.52
2018-11-27T21:50:55.201Z,26.42
2018-11-27T21:52:58.956Z,31.10
2018-11-27T21:55:02.239Z,24.20
2018-11-27T21:57:05.290Z,37.47
2018-11-27T21:59:08.989Z,27.42
2018-11-27T22:01:12.716Z,34.67
2018-11-27T22:03:15.643Z,36.53
2018-11-27T22:05:18.586Z,31.80
2018-11-27T22:07:21.639Z,35.05
2018-11-27T22:09:25.441Z,31.15
2018-11-27T22:11:29.161Z,36.30
2018-11-27T22:13:32.084Z,35.10
2018-11-27T22:15:35.107Z,39.93
2018-11-27T22:17:38.316Z,42.62
2018-11-27T22:19:41.250Z,34.25
2018-11-27T22:21:44.177Z,50.20
2018-11-27T22:23:47.244Z,36.47
2018-11-27T22:25:50.951Z,46.33
2018-11-27T22:27:54.666Z,40.60
2018-11-27T22:29:57.635Z,41.55
2018-11-27T22:32:00.572Z,39.80
2018-11-27T22:34:05.008Z,41.72
2018-11-27T22:36:08.812Z,43.17
2018-11-27T22:38:12.529Z,36.05
2018-11-27T22:40:16.225Z,44.13
2018-11-27T22:42:20.057Z,38.92
2018-11-27T22:44:22.994Z,37.35
2018-11-27T22:46:26.687Z,37.58
2018-11-27T22:48:30.416Z,34.95
2018-11-27T22:50:33.356Z,34.53
2018-11-27T22:52:36.280Z,47.72
2018-11-27T22:54:40.080Z,55.03
2018-11-27T22:56:43.882Z,49.10
2018-11-27T22:58:46.888Z,37.10
2018-11-27T23:00:49.950Z,48.60
2018-11-27T23:02:52.908Z,42.30
2018-11-27T23:04:55.836Z,35.20
2018-11-27T23:06:58.902Z,40.63
2018-11-27T23:09:02.621Z,48.70
2018-11-27T23:11:05.683Z,49.70
2018-11-27T23:13:09.389Z,46.10
2018-11-27T23:15:13.104Z,40.33
2018-11-27T23:17:16.189Z,50.20
2018-11-27T23:19:19.112Z,34.28
2018-11-27T23:21:22.136Z,39.20
2018-11-27T23:23:25.105Z,35.58
2018-11-27T23:25:28.817Z,36.03
2018-11-27T23:27:32.623Z,50.38
2018-11-27T23:29:36.376Z,42.95
2018-11-27T23:31:39.313Z,35.35
2018-11-27T23:33:42.249Z,46.85
2018-11-27T23:35:45.204Z,36.23
2018-11-27T23:37:48.264Z,35.60
2018-11-27T23:39:52.036Z,46.33
2018-11-27T23:41:55.856Z,39.67
2018-11-27T23:44:00.088Z,38.88
2018-11-27T23:46:03.023Z,53.25
2018-11-27T23:48:05.995Z,37.67
2018-11-27T23:50:09.036Z,43.63
2018-11-27T23:52:11.965Z,43.63
2018-11-27T23:54:14.943Z,41.30
2018-11-27T23:56:17.884Z,36.28
2018-11-27T23:58:20.863Z,38.33
